createdAt,value
2018-06-22T00:02:08.570Z,10.00
2018-06-22T00:04:36.953Z,9.90
2018-06-22T00:07:05.592Z,9.90
2018-06-22T00:09:33.945Z,9.80
2018-06-22T00:12:02.297Z,9.70
2018-06-22T00:14:30.654Z,9.70
2018-06-22T00:16:58.992Z,9.60
2018-06-22T00:21:55.385Z,9.50
2018-06-22T00:24:23.733Z,9.50
2018-06-22T00:29:20.122Z,9.30
2018-06-22T00:31:48.530Z,9.30
2018-06-22T00:34:16.882Z,9.20
2018-06-22T00:36:45.227Z,9.10
2018-06-22T00:39:13.606Z,9.10
2018-06-22T00:41:41.958Z,9.00
2018-06-22T00:44:10.361Z,9.00
2018-06-22T00:46:38.684Z,9.00
2018-06-22T00:49:07.033Z,9.00
2018-06-22T00:51:35.366Z,9.00
2018-06-22T00:54:12.631Z,9.00
2018-06-22T00:56:41.007Z,9.00
2018-06-22T00:59:09.443Z,9.00
2018-06-22T01:01:37.754Z,8.90
2018-06-22T01:04:06.332Z,8.90
2018-06-22T01:06:34.688Z,8.80
2018-06-22T01:09:04.734Z,8.80
2018-06-22T01:11:33.043Z,8.80
2018-06-22T01:14:01.403Z,8.70
2018-06-22T01:16:29.724Z,8.70
2018-06-22T01:18:58.044Z,8.70
2018-06-22T01:21:26.415Z,8.60
2018-06-22T01:23:54.830Z,8.60
2018-06-22T01:26:23.167Z,8.50
2018-06-22T01:28:55.427Z,8.50
2018-06-22T01:31:23.786Z,8.40
2018-06-22T01:33:52.112Z,8.30
2018-06-22T01:36:20.489Z,8.20
2018-06-22T01:38:48.839Z,8.20
2018-06-22T01:41:17.208Z,8.10
2018-06-22T01:43:45.563Z,8.10
2018-06-22T01:46:13.932Z,8.10
2018-06-22T01:48:42.298Z,8.00
2018-06-22T01:51:10.675Z,8.00
2018-06-22T01:53:39.003Z,8.00
2018-06-22T01:56:07.342Z,8.00
2018-06-22T01:58:35.678Z,8.00
2018-06-22T02:01:04.033Z,8.00
2018-06-22T02:03:32.527Z,7.90
2018-06-22T02:06:00.901Z,7.80
2018-06-22T02:08:29.247Z,7.80
2018-06-22T02:13:25.614Z,7.70
2018-06-22T02:15:53.981Z,7.70
2018-06-22T02:18:22.280Z,7.70
2018-06-22T02:20:50.619Z,7.60
2018-06-22T02:23:19.048Z,7.60
2018-06-22T02:25:47.399Z,7.50
2018-06-22T02:28:15.739Z,7.50
2018-06-22T02:30:44.118Z,7.50
2018-06-22T02:33:12.435Z,7.50
2018-06-22T02:35:40.801Z,7.40
2018-06-22T02:38:09.175Z,7.40
2018-06-22T02:40:37.557Z,7.40
2018-06-22T02:43:06.004Z,7.30
2018-06-22T02:45:34.370Z,7.30
2018-06-22T02:48:02.737Z,7.20
2018-06-22T02:50:31.122Z,7.20
2018-06-22T02:52:59.469Z,7.20
2018-06-22T02:55:27.793Z,7.20
2018-06-22T02:57:56.180Z,7.20
2018-06-22T03:00:24.510Z,7.20
2018-06-22T03:02:53.265Z,7.20
2018-06-22T03:05:21.646Z,7.20
2018-06-22T03:07:50.051Z,7.20
2018-06-22T03:10:18.401Z,7.10
2018-06-22T03:12:46.749Z,7.10
2018-06-22T03:15:15.071Z,7.10
2018-06-22T03:17:43.456Z,7.00
2018-06-22T03:20:11.815Z,7.00
2018-06-22T03:22:40.166Z,7.00
2018-06-22T03:25:08.541Z,7.00
2018-06-22T03:27:36.871Z,7.00
2018-06-22T03:30:05.252Z,7.00
2018-06-22T03:32:33.620Z,7.00
2018-06-22T03:35:01.953Z,7.00
2018-06-22T03:37:30.291Z,6.90
2018-06-22T03:39:58.669Z,6.90
2018-06-22T03:42:27.016Z,6.90
2018-06-22T03:44:55.453Z,7.00
2018-06-22T03:47:23.738Z,7.00
2018-06-22T03:49:52.089Z,6.90
2018-06-22T03:52:20.450Z,6.90
2018-06-22T03:54:48.811Z,6.90
2018-06-22T03:57:17.117Z,6.90
2018-06-22T03:59:45.476Z,6.90
2018-06-22T04:04:41.884Z,7.00
2018-06-22T04:07:10.569Z,7.00
2018-06-22T04:09:39.154Z,7.00
2018-06-22T04:12:07.495Z,7.00
2018-06-22T04:14:35.957Z,6.90
2018-06-22T04:17:04.276Z,6.90
2018-06-22T04:19:32.636Z,7.00
2018-06-22T04:22:00.970Z,7.10
2018-06-22T04:24:29.337Z,7.10
2018-06-22T04:26:58.496Z,7.10
2018-06-22T04:29:26.834Z,7.20
2018-06-22T04:31:55.185Z,7.20
2018-06-22T04:34:23.534Z,7.30
2018-06-22T04:36:51.918Z,7.30
2018-06-22T04:39:20.254Z,7.40
2018-06-22T04:44:16.675Z,7.50
2018-06-22T04:46:45.040Z,7.60
2018-06-22T04:49:13.404Z,7.60
2018-06-22T04:51:41.772Z,7.70
2018-06-22T04:54:10.101Z,7.80
2018-06-22T04:56:38.484Z,7.90
2018-06-22T04:59:06.819Z,8.00
2018-06-22T05:01:35.231Z,8.00
2018-06-22T05:04:03.590Z,8.10
2018-06-22T05:06:31.976Z,8.20
2018-06-22T05:09:00.302Z,8.20
2018-06-22T05:11:28.651Z,8.30
2018-06-22T05:13:56.984Z,8.40
2018-06-22T05:16:25.355Z,8.50
2018-06-22T05:18:53.696Z,8.60
2018-06-22T05:21:22.171Z,8.70
2018-06-22T05:23:50.555Z,8.80
2018-06-22T05:26:18.922Z,8.90
2018-06-22T05:28:47.261Z,9.00
2018-06-22T05:31:15.645Z,9.10
2018-06-22T05:33:43.976Z,9.20
2018-06-22T05:36:12.323Z,9.30
2018-06-22T05:38:40.755Z,9.40
2018-06-22T05:41:09.129Z,9.50
2018-06-22T05:43:37.509Z,9.60
2018-06-22T05:46:05.925Z,9.70
2018-06-22T05:48:34.277Z,9.80
2018-06-22T05:51:02.660Z,9.80
2018-06-22T05:53:31.004Z,10.00
2018-06-22T05:55:59.347Z,10.10
2018-06-22T05:58:27.704Z,10.10
2018-06-22T06:00:56.038Z,10.20
2018-06-22T06:03:24.446Z,10.30
2018-06-22T06:05:52.773Z,10.30
2018-06-22T06:08:21.182Z,10.40
2018-06-22T06:10:49.518Z,10.60
2018-06-22T06:13:17.900Z,10.60
2018-06-22T06:15:46.274Z,10.70
2018-06-22T06:18:14.601Z,10.70
2018-06-22T06:20:42.924Z,10.80
2018-06-22T06:23:11.262Z,10.90
2018-06-22T06:25:39.633Z,11.10
2018-06-22T06:28:07.958Z,11.20
2018-06-22T06:30:36.371Z,11.30
2018-06-22T06:35:32.982Z,11.60
2018-06-22T06:38:01.326Z,11.80
2018-06-22T06:40:29.692Z,12.00
2018-06-22T06:47:54.202Z,12.50
2018-06-22T06:50:22.570Z,12.70
2018-06-22T06:52:50.940Z,12.90
2018-06-22T06:55:19.329Z,13.10
2018-06-22T06:57:47.845Z,13.30
2018-06-22T07:00:16.193Z,13.60
2018-06-22T07:02:44.578Z,14.10
2018-06-22T07:05:12.929Z,14.40
2018-06-22T07:07:41.302Z,14.60
2018-06-22T07:10:09.657Z,14.80
2018-06-22T07:12:38.020Z,15.20
2018-06-22T07:15:06.379Z,15.40
2018-06-22T07:17:34.709Z,15.90
2018-06-22T07:20:03.086Z,16.30
2018-06-22T07:22:31.448Z,16.60
2018-06-22T07:24:59.783Z,16.80
2018-06-22T07:27:28.161Z,17.30
2018-06-22T07:29:56.576Z,18.10
2018-06-22T07:32:25.045Z,18.50
2018-06-22T07:34:53.519Z,18.30
2018-06-22T07:37:21.922Z,17.90
2018-06-22T07:39:50.282Z,17.60
2018-06-22T07:42:18.672Z,17.90
2018-06-22T07:44:47.042Z,18.00
2018-06-22T07:47:15.400Z,18.10
2018-06-22T07:52:11.824Z,18.60
2018-06-22T07:54:40.175Z,19.30
2018-06-22T07:57:08.583Z,19.40
2018-06-22T07:59:36.890Z,19.40
2018-06-22T08:30:12.598Z,21.40
2018-06-22T08:58:58.347Z,22.80
2018-06-22T09:01:26.785Z,22.30
2018-06-22T09:03:55.971Z,22.30
2018-06-22T09:06:25.543Z,21.90
2018-06-22T09:08:54.313Z,21.70
2018-06-22T09:11:22.871Z,21.50
2018-06-22T09:13:52.092Z,21.60
2018-06-22T09:16:23.228Z,21.50
2018-06-22T09:18:51.896Z,21.20
2018-06-22T09:21:21.161Z,21.00
2018-06-22T09:23:49.839Z,20.40
2018-06-22T09:26:18.494Z,20.70
2018-06-22T09:28:47.002Z,21.10
2018-06-22T09:31:15.527Z,21.90
2018-06-22T09:33:44.979Z,22.80
2018-06-22T09:36:14.012Z,23.70
2018-06-22T09:38:42.881Z,24.60
2018-06-22T09:41:11.573Z,25.10
2018-06-22T09:43:40.265Z,25.00
2018-06-22T09:46:09.887Z,24.50
2018-06-22T09:48:38.808Z,24.00
2018-06-22T09:51:07.392Z,22.80
2018-06-22T09:53:35.893Z,22.50
2018-06-22T09:56:04.554Z,22.20
2018-06-22T09:58:32.953Z,22.20
2018-06-22T10:01:02.149Z,21.80
2018-06-22T10:03:30.696Z,21.90
2018-06-22T10:05:59.414Z,21.70
2018-06-22T10:08:27.862Z,21.60
2018-06-22T10:10:56.329Z,21.50
2018-06-22T10:13:24.776Z,21.20
2018-06-22T10:15:54.036Z,21.20
2018-06-22T10:18:23.882Z,21.40
2018-06-22T10:20:52.724Z,22.00
2018-06-22T10:23:23.636Z,23.60
2018-06-22T10:26:12.810Z,25.00
2018-06-22T10:34:09.167Z,25.70
2018-06-22T10:36:38.317Z,25.40
2018-06-22T10:39:10.025Z,23.90
2018-06-22T10:41:38.597Z,23.40
2018-06-22T10:44:07.633Z,23.00
2018-06-22T10:46:36.159Z,23.10
2018-06-22T10:49:04.959Z,23.10
2018-06-22T10:51:33.558Z,23.00
2018-06-22T10:54:02.248Z,23.10
2018-06-22T10:56:32.592Z,23.20
2018-06-22T10:59:01.572Z,23.30
2018-06-22T11:01:31.006Z,23.60
2018-06-22T11:03:59.572Z,24.10
2018-06-22T11:06:28.025Z,24.70
2018-06-22T11:08:56.554Z,25.70
2018-06-22T11:11:25.056Z,26.50
2018-06-22T11:13:53.657Z,26.30
2018-06-22T11:16:22.905Z,26.10
2018-06-22T11:18:51.476Z,26.00
2018-06-22T11:21:20.052Z,25.50
2018-06-22T11:23:48.615Z,25.50
2018-06-22T11:26:17.329Z,25.30
2018-06-22T11:28:45.817Z,25.00
2018-06-22T11:31:19.930Z,25.00
2018-06-22T11:33:48.436Z,24.90
2018-06-22T11:36:17.111Z,24.60
2018-06-22T11:38:55.877Z,24.50
2018-06-22T12:39:20.916Z,30.30
2018-06-22T13:01:44.635Z,27.00
2018-06-22T13:04:17.063Z,26.00
2018-06-22T13:06:46.503Z,25.50
2018-06-22T13:09:15.864Z,25.30
2018-06-22T13:11:51.538Z,25.30
2018-06-22T13:14:25.671Z,25.20
2018-06-22T13:37:32.135Z,24.80
2018-06-22T13:40:06.663Z,24.80
2018-06-22T13:57:33.623Z,22.50
2018-06-22T14:26:25.951Z,21.10
2018-06-22T14:43:22.415Z,21.20
2018-06-22T14:45:55.396Z,22.20
2018-06-22T14:48:39.582Z,22.40
2018-06-22T14:54:56.281Z,22.00
2018-06-22T14:57:44.850Z,21.50
2018-06-22T15:00:18.912Z,21.40
2018-06-22T15:11:55.836Z,21.00
2018-06-22T15:14:25.295Z,21.50
2018-06-22T15:20:05.259Z,21.90
2018-06-22T15:39:23.662Z,22.60
2018-06-22T15:42:05.337Z,22.80
2018-06-22T16:36:41.733Z,21.90
2018-06-22T16:54:36.959Z,21.60
2018-06-22T17:00:24.968Z,21.00
2018-06-22T17:03:37.229Z,20.80
2018-06-22T17:07:00.955Z,20.50
2018-06-22T18:44:03.225Z,18.50
2018-06-22T18:46:31.739Z,18.60
2018-06-22T18:49:00.191Z,18.60
2018-06-22T18:51:28.674Z,18.60
2018-06-22T18:54:02.730Z,18.50
2018-06-22T18:56:36.702Z,18.40
2018-06-22T18:59:15.957Z,18.30
2018-06-22T19:01:49.750Z,18.20
2018-06-22T19:04:18.312Z,18.20
2018-06-22T19:06:47.038Z,18.00
2018-06-22T19:09:15.551Z,17.80
2018-06-22T19:11:44.122Z,17.70
2018-06-22T19:14:13.160Z,17.60
2018-06-22T19:16:41.747Z,17.50
2018-06-22T19:19:13.346Z,17.50
2018-06-22T19:21:47.594Z,17.40
2018-06-22T19:24:18.868Z,17.20
2018-06-22T19:26:50.438Z,17.10
2018-06-22T19:29:21.589Z,16.90
2018-06-22T19:31:50.127Z,16.80
2018-06-22T19:34:22.796Z,16.70
2018-06-22T19:36:52.108Z,16.50
2018-06-22T19:39:20.640Z,16.40
2018-06-22T19:41:50.185Z,16.20
2018-06-22T19:44:24.036Z,16.10
2018-06-22T19:46:57.915Z,15.90
2018-06-22T19:49:31.599Z,15.80
2018-06-22T19:52:05.343Z,15.60
2018-06-22T19:54:34.070Z,15.40
2018-06-22T19:57:02.554Z,15.20
2018-06-22T19:59:31.803Z,15.00
2018-06-22T20:02:00.377Z,14.90
2018-06-22T20:04:29.048Z,14.70
2018-06-22T20:06:57.565Z,14.60
2018-06-22T20:09:26.176Z,14.50
2018-06-22T20:11:54.858Z,14.30
2018-06-22T20:14:23.849Z,14.30
2018-06-22T20:16:53.033Z,14.10
2018-06-22T20:19:23.730Z,14.00
2018-06-22T20:21:52.324Z,13.90
2018-06-22T20:26:31.343Z,13.80
2018-06-22T20:28:59.753Z,13.70
2018-06-22T20:31:33.735Z,13.60
2018-06-22T20:34:07.596Z,13.50
2018-06-22T20:36:41.305Z,13.30
2018-06-22T20:39:15.052Z,13.20
2018-06-22T20:41:48.842Z,13.10
2018-06-22T20:44:24.923Z,13.00
2018-06-22T20:46:59.706Z,12.90
2018-06-22T20:49:33.561Z,12.80
2018-06-22T20:52:03.265Z,12.70
2018-06-22T20:54:32.714Z,12.70
2018-06-22T20:57:01.273Z,12.60
2018-06-22T20:59:29.763Z,12.50
2018-06-22T21:01:58.316Z,12.40
2018-06-22T21:04:26.822Z,12.40
2018-06-22T21:06:55.671Z,12.30
2018-06-22T21:09:24.224Z,12.20
2018-06-22T21:11:52.764Z,12.10
2018-06-22T21:14:21.302Z,12.00
2018-06-22T21:16:49.852Z,12.00
2018-06-22T21:19:18.319Z,11.90
2018-06-22T21:21:52.173Z,11.90
2018-06-22T21:24:20.715Z,11.80
2018-06-22T21:26:49.244Z,11.70
2018-06-22T21:29:23.044Z,11.70
2018-06-22T21:31:56.802Z,11.60
2018-06-22T21:34:32.944Z,11.50
2018-06-22T21:37:06.676Z,11.40
2018-06-22T21:39:35.284Z,11.30
2018-06-22T21:42:04.084Z,11.20
2018-06-22T21:44:32.916Z,11.10
2018-06-22T21:47:01.575Z,11.00
2018-06-22T21:49:30.197Z,10.90
2018-06-22T21:51:58.791Z,10.80
2018-06-22T21:54:27.433Z,10.60
2018-06-22T21:56:56.056Z,10.50
2018-06-22T21:59:24.557Z,10.40
2018-06-22T22:01:53.153Z,10.30
2018-06-22T22:04:21.805Z,10.20
2018-06-22T22:06:50.518Z,10.10
2018-06-22T22:09:20.656Z,10.00
2018-06-22T22:11:54.939Z,9.90
2018-06-22T22:14:25.026Z,9.70
2018-06-22T22:16:53.510Z,9.70
2018-06-22T22:19:22.140Z,9.60
2018-06-22T22:21:50.651Z,9.50
2018-06-22T22:24:19.233Z,9.40
2018-06-22T22:26:47.873Z,9.40
2018-06-22T22:29:16.413Z,9.30
2018-06-22T22:31:45.157Z,9.20
2018-06-22T22:34:13.741Z,9.10
2018-06-22T22:36:42.657Z,9.00
2018-06-22T22:39:11.726Z,9.00
2018-06-22T22:41:40.393Z,8.90
2018-06-22T22:44:09.866Z,8.80
2018-06-22T22:46:38.836Z,8.80
2018-06-22T22:49:07.609Z,8.70
2018-06-22T22:51:36.246Z,8.60
2018-06-22T22:54:05.076Z,8.60
2018-06-22T22:56:33.741Z,8.50
2018-06-22T22:59:02.429Z,8.50
2018-06-22T23:01:31.039Z,8.40
2018-06-22T23:03:59.864Z,8.40
2018-06-22T23:06:29.148Z,8.40
2018-06-22T23:08:57.830Z,8.30
2018-06-22T23:11:26.681Z,8.30
2018-06-22T23:13:55.853Z,8.20
2018-06-22T23:16:25.669Z,8.20
2018-06-22T23:18:55.610Z,8.10
2018-06-22T23:21:24.365Z,8.10
2018-06-22T23:23:53.058Z,8.00
2018-06-22T23:26:21.777Z,8.00
2018-06-22T23:28:50.380Z,7.90
2018-06-22T23:31:19.042Z,7.80
2018-06-22T23:33:47.687Z,7.80
2018-06-22T23:36:16.389Z,7.70
2018-06-22T23:38:45.063Z,7.70
2018-06-22T23:41:13.749Z,7.60
2018-06-22T23:43:42.402Z,7.60
2018-06-22T23:46:11.145Z,7.50
2018-06-22T23:48:54.908Z,7.50
2018-06-22T23:51:33.406Z,7.40
2018-06-22T23:54:17.642Z,7.40
2018-06-22T23:57:01.189Z,7.30
